sensor_id;sensor_type;location;lat;lon;timestamp;temperature;humidity
26589;DHT22;14235;48.532;8.722;2023-12-20T00:02:17;5.40;99.90
26589;DHT22;14235;48.532;8.722;2023-12-20T00:04:43;5.50;99.90
26589;DHT22;14235;48.532;8.722;2023-12-20T00:07:08;5.50;99.90
26589;DHT22;14235;48.532;8.722;2023-12-20T00:09:34;5.50;99.90
26589;DHT22;14235;48.532;8.722;2023-12-20T00:11:59;5.50;99.90
26589;DHT22;14235;48.532;8.722;2023-12-20T00:14:25;5.50;99.90
26589;DHT22;14235;48.532;8.722;2023-12-20T00:16:50;5.50;99.90
26589;DHT22;14235;48.532;8.722;2023-12-20T00:19:16;5.50;99.90
26589;DHT22;14235;48.532;8.722;2023-12-20T00:21:41;5.80;99.90
26589;DHT22;14235;48.532;8.722;2023-12-20T00:24:07;5.50;99.90
26589;DHT22;14235;48.532;8.722;2023-12-20T00:26:33;5.50;99.90
26589;DHT22;14235;48.532;8.722;2023-12-20T00:28:58;5.50;99.90
26589;DHT22;14235;48.532;8.722;2023-12-20T00:31:24;5.50;99.90
26589;DHT22;14235;48.532;8.722;2023-12-20T00:33:50;5.50;99.90
26589;DHT22;14235;48.532;8.722;2023-12-20T00:36:15;5.50;99.90
26589;DHT22;14235;48.532;8.722;2023-12-20T00:38:41;5.50;99.90
26589;DHT22;14235;48.532;8.722;2023-12-20T00:41:06;5.50;99.90
26589;DHT22;14235;48.532;8.722;2023-12-20T00:43:32;5.50;99.90
26589;DHT22;14235;48.532;8.722;2023-12-20T00:45:58;5.50;99.90
26589;DHT22;14235;48.532;8.722;2023-12-20T00:48:25;5.50;99.90
26589;DHT22;14235;48.532;8.722;2023-12-20T00:50:52;5.50;99.90
26589;DHT22;14235;48.532;8.722;2023-12-20T00:53:18;5.50;99.90
26589;DHT22;14235;48.532;8.722;2023-12-20T00:55:44;5.50;99.90
26589;DHT22;14235;48.532;8.722;2023-12-20T00:58:10;5.60;99.90
26589;DHT22;14235;48.532;8.722;2023-12-20T01:00:36;5.50;99.90
26589;DHT22;14235;48.532;8.722;2023-12-20T01:03:01;5.40;99.90
26589;DHT22;14235;48.532;8.722;2023-12-20T01:05:27;5.50;99.90
26589;DHT22;14235;48.532;8.722;2023-12-20T01:07:52;5.40;99.90
26589;DHT22;14235;48.532;8.722;2023-12-20T01:10:18;5.40;99.90
26589;DHT22;14235;48.532;8.722;2023-12-20T01:12:44;5.40;99.90
26589;DHT22;14235;48.532;8.722;2023-12-20T01:15:10;5.90;99.90
26589;DHT22;14235;48.532;8.722;2023-12-20T01:17:35;5.40;99.90
26589;DHT22;14235;48.532;8.722;2023-12-20T01:20:01;5.40;99.90
26589;DHT22;14235;48.532;8.722;2023-12-20T01:22:26;5.40;99.90
26589;DHT22;14235;48.532;8.722;2023-12-20T01:24:52;5.30;99.90
26589;DHT22;14235;48.532;8.722;2023-12-20T01:27:18;5.30;99.90
26589;DHT22;14235;48.532;8.722;2023-12-20T01:29:44;5.30;99.90
26589;DHT22;14235;48.532;8.722;2023-12-20T01:32:09;5.30;99.90
26589;DHT22;14235;48.532;8.722;2023-12-20T01:34:35;5.30;99.90
26589;DHT22;14235;48.532;8.722;2023-12-20T01:37:01;5.40;99.90
26589;DHT22;14235;48.532;8.722;2023-12-20T01:39:27;5.30;99.90
26589;DHT22;14235;48.532;8.722;2023-12-20T01:41:53;5.20;99.90
26589;DHT22;14235;48.532;8.722;2023-12-20T01:44:19;5.20;99.90
26589;DHT22;14235;48.532;8.722;2023-12-20T01:46:45;5.00;99.90
26589;DHT22;14235;48.532;8.722;2023-12-20T01:49:11;5.20;99.90
26589;DHT22;14235;48.532;8.722;2023-12-20T01:51:37;5.00;99.90
26589;DHT22;14235;48.532;8.722;2023-12-20T01:54:05;5.10;99.90
26589;DHT22;14235;48.532;8.722;2023-12-20T01:57:01;5.20;99.90
26589;DHT22;14235;48.532;8.722;2023-12-20T01:59:39;5.30;99.90
26589;DHT22;14235;48.532;8.722;2023-12-20T02:02:05;5.30;99.90
26589;DHT22;14235;48.532;8.722;2023-12-20T02:04:32;5.20;99.90
26589;DHT22;14235;48.532;8.722;2023-12-20T02:06:59;5.20;99.90
26589;DHT22;14235;48.532;8.722;2023-12-20T02:09:24;5.30;99.90
26589;DHT22;14235;48.532;8.722;2023-12-20T02:11:52;5.20;99.90
26589;DHT22;14235;48.532;8.722;2023-12-20T02:14:18;5.30;99.90
26589;DHT22;14235;48.532;8.722;2023-12-20T02:16:43;5.30;99.90
26589;DHT22;14235;48.532;8.722;2023-12-20T02:19:13;5.30;99.90
26589;DHT22;14235;48.532;8.722;2023-12-20T02:21:39;5.20;99.90
26589;DHT22;14235;48.532;8.722;2023-12-20T02:24:05;5.30;99.90
26589;DHT22;14235;48.532;8.722;2023-12-20T02:26:32;5.20;99.90
26589;DHT22;14235;48.532;8.722;2023-12-20T02:28:59;5.20;99.90
26589;DHT22;14235;48.532;8.722;2023-12-20T02:31:25;5.30;99.90
26589;DHT22;14235;48.532;8.722;2023-12-20T02:33:50;5.30;99.90
26589;DHT22;14235;48.532;8.722;2023-12-20T02:36:16;5.30;99.90
26589;DHT22;14235;48.532;8.722;2023-12-20T02:38:41;5.30;99.90
26589;DHT22;14235;48.532;8.722;2023-12-20T02:41:07;5.30;99.90
26589;DHT22;14235;48.532;8.722;2023-12-20T02:43:33;5.30;99.90
26589;DHT22;14235;48.532;8.722;2023-12-20T02:45:58;5.30;99.90
26589;DHT22;14235;48.532;8.722;2023-12-20T02:48:24;5.30;99.90
26589;DHT22;14235;48.532;8.722;2023-12-20T02:50:49;5.30;99.90
26589;DHT22;14235;48.532;8.722;2023-12-20T02:53:15;5.30;99.90
26589;DHT22;14235;48.532;8.722;2023-12-20T02:55:41;5.40;99.90
26589;DHT22;14235;48.532;8.722;2023-12-20T02:58:07;5.40;99.90
26589;DHT22;14235;48.532;8.722;2023-12-20T03:00:32;5.40;99.90
26589;DHT22;14235;48.532;8.722;2023-12-20T03:02:58;5.30;99.90
26589;DHT22;14235;48.532;8.722;2023-12-20T03:05:25;5.40;99.90
26589;DHT22;14235;48.532;8.722;2023-12-20T03:07:50;5.30;99.90
26589;DHT22;14235;48.532;8.722;2023-12-20T03:10:16;5.40;99.90
26589;DHT22;14235;48.532;8.722;2023-12-20T03:12:41;5.40;99.90
26589;DHT22;14235;48.532;8.722;2023-12-20T03:15:07;5.40;99.90
26589;DHT22;14235;48.532;8.722;2023-12-20T03:17:33;5.40;99.90
26589;DHT22;14235;48.532;8.722;2023-12-20T03:19:59;5.40;99.90
26589;DHT22;14235;48.532;8.722;2023-12-20T03:22:24;5.30;99.90
26589;DHT22;14235;48.532;8.722;2023-12-20T03:24:50;5.40;99.90
26589;DHT22;14235;48.532;8.722;2023-12-20T03:27:15;5.40;99.90
26589;DHT22;14235;48.532;8.722;2023-12-20T03:29:41;5.30;99.90
26589;DHT22;14235;48.532;8.722;2023-12-20T03:32:06;5.30;99.90
26589;DHT22;14235;48.532;8.722;2023-12-20T03:34:33;5.30;99.90
26589;DHT22;14235;48.532;8.722;2023-12-20T03:36:59;5.40;99.90
26589;DHT22;14235;48.532;8.722;2023-12-20T03:39:24;5.30;99.90
26589;DHT22;14235;48.532;8.722;2023-12-20T03:41:50;5.40;99.90
26589;DHT22;14235;48.532;8.722;2023-12-20T03:44:16;5.30;99.90
26589;DHT22;14235;48.532;8.722;2023-12-20T03:46:41;5.40;99.90
26589;DHT22;14235;48.532;8.722;2023-12-20T03:49:07;5.40;99.90
26589;DHT22;14235;48.532;8.722;2023-12-20T03:51:32;5.40;99.90
26589;DHT22;14235;48.532;8.722;2023-12-20T03:53:58;5.40;99.90
26589;DHT22;14235;48.532;8.722;2023-12-20T03:56:23;5.40;99.90
26589;DHT22;14235;48.532;8.722;2023-12-20T03:58:49;5.40;99.90
26589;DHT22;14235;48.532;8.722;2023-12-20T04:01:14;5.40;99.90
26589;DHT22;14235;48.532;8.722;2023-12-20T04:03:40;5.30;99.90
26589;DHT22;14235;48.532;8.722;2023-12-20T04:06:06;5.40;99.90
26589;DHT22;14235;48.532;8.722;2023-12-20T04:08:31;5.40;99.90
26589;DHT22;14235;48.532;8.722;2023-12-20T04:10:57;5.40;99.90
26589;DHT22;14235;48.532;8.722;2023-12-20T04:13:22;5.30;99.90
26589;DHT22;14235;48.532;8.722;2023-12-20T04:15:48;5.40;99.90
26589;DHT22;14235;48.532;8.722;2023-12-20T04:18:15;5.30;99.90
26589;DHT22;14235;48.532;8.722;2023-12-20T04:20:41;5.30;99.90
26589;DHT22;14235;48.532;8.722;2023-12-20T04:23:06;5.30;99.90
26589;DHT22;14235;48.532;8.722;2023-12-20T04:25:32;5.30;99.90
26589;DHT22;14235;48.532;8.722;2023-12-20T04:27:57;5.30;99.90
26589;DHT22;14235;48.532;8.722;2023-12-20T04:30:23;5.30;99.90
26589;DHT22;14235;48.532;8.722;2023-12-20T04:32:48;5.20;99.90
26589;DHT22;14235;48.532;8.722;2023-12-20T04:35:14;5.20;99.90
26589;DHT22;14235;48.532;8.722;2023-12-20T04:37:39;5.20;99.90
26589;DHT22;14235;48.532;8.722;2023-12-20T04:40:05;5.20;99.90
26589;DHT22;14235;48.532;8.722;2023-12-20T04:42:31;5.20;99.90
26589;DHT22;14235;48.532;8.722;2023-12-20T04:44:57;5.10;99.90
26589;DHT22;14235;48.532;8.722;2023-12-20T04:47:22;5.10;99.90
26589;DHT22;14235;48.532;8.722;2023-12-20T04:49:48;5.10;99.90
26589;DHT22;14235;48.532;8.722;2023-12-20T04:52:14;5.10;99.90
26589;DHT22;14235;48.532;8.722;2023-12-20T04:54:40;5.10;99.90
26589;DHT22;14235;48.532;8.722;2023-12-20T04:57:05;5.10;99.90
26589;DHT22;14235;48.532;8.722;2023-12-20T04:59:31;5.10;99.90
26589;DHT22;14235;48.532;8.722;2023-12-20T05:01:56;5.10;99.90
26589;DHT22;14235;48.532;8.722;2023-12-20T05:04:23;5.10;99.90
26589;DHT22;14235;48.532;8.722;2023-12-20T05:06:48;5.10;99.90
26589;DHT22;14235;48.532;8.722;2023-12-20T05:09:15;5.10;99.90
26589;DHT22;14235;48.532;8.722;2023-12-20T05:11:41;5.10;99.90
26589;DHT22;14235;48.532;8.722;2023-12-20T05:14:06;5.10;99.90
26589;DHT22;14235;48.532;8.722;2023-12-20T05:16:32;5.10;99.90
26589;DHT22;14235;48.532;8.722;2023-12-20T05:18:58;5.10;99.90
26589;DHT22;14235;48.532;8.722;2023-12-20T05:21:26;5.20;99.90
26589;DHT22;14235;48.532;8.722;2023-12-20T05:23:51;5.10;99.90
26589;DHT22;14235;48.532;8.722;2023-12-20T05:26:17;5.10;99.90
26589;DHT22;14235;48.532;8.722;2023-12-20T05:28:42;5.20;99.90
26589;DHT22;14235;48.532;8.722;2023-12-20T05:31:08;5.20;99.90
26589;DHT22;14235;48.532;8.722;2023-12-20T05:33:34;5.20;99.90
26589;DHT22;14235;48.532;8.722;2023-12-20T05:36:00;5.10;99.90
26589;DHT22;14235;48.532;8.722;2023-12-20T05:38:25;5.10;99.90
26589;DHT22;14235;48.532;8.722;2023-12-20T05:40:51;5.10;99.90
26589;DHT22;14235;48.532;8.722;2023-12-20T05:43:17;5.10;99.90
26589;DHT22;14235;48.532;8.722;2023-12-20T05:45:42;5.20;99.90
26589;DHT22;14235;48.532;8.722;2023-12-20T05:48:08;5.10;99.90
26589;DHT22;14235;48.532;8.722;2023-12-20T05:50:33;5.10;99.90
26589;DHT22;14235;48.532;8.722;2023-12-20T05:53:00;5.20;99.90
26589;DHT22;14235;48.532;8.722;2023-12-20T05:55:25;5.20;99.90
26589;DHT22;14235;48.532;8.722;2023-12-20T05:57:51;5.10;99.90
26589;DHT22;14235;48.532;8.722;2023-12-20T06:00:17;5.20;99.90
26589;DHT22;14235;48.532;8.722;2023-12-20T06:02:43;5.10;99.90
26589;DHT22;14235;48.532;8.722;2023-12-20T06:05:09;5.20;99.90
26589;DHT22;14235;48.532;8.722;2023-12-20T06:07:34;5.20;99.90
26589;DHT22;14235;48.532;8.722;2023-12-20T06:10:00;5.20;99.90
26589;DHT22;14235;48.532;8.722;2023-12-20T06:12:25;5.20;99.90
26589;DHT22;14235;48.532;8.722;2023-12-20T06:14:52;5.10;99.90
26589;DHT22;14235;48.532;8.722;2023-12-20T06:17:18;5.10;99.90
26589;DHT22;14235;48.532;8.722;2023-12-20T06:19:44;5.00;99.90
26589;DHT22;14235;48.532;8.722;2023-12-20T06:22:13;5.10;99.90
26589;DHT22;14235;48.532;8.722;2023-12-20T06:24:39;5.00;99.90
26589;DHT22;14235;48.532;8.722;2023-12-20T06:27:04;5.00;99.90
26589;DHT22;14235;48.532;8.722;2023-12-20T06:29:30;5.00;99.90
26589;DHT22;14235;48.532;8.722;2023-12-20T06:31:56;4.90;99.90
26589;DHT22;14235;48.532;8.722;2023-12-20T06:34:22;4.90;99.90
26589;DHT22;14235;48.532;8.722;2023-12-20T06:36:47;4.80;99.90
26589;DHT22;14235;48.532;8.722;2023-12-20T06:39:13;4.80;99.90
26589;DHT22;14235;48.532;8.722;2023-12-20T06:41:39;4.80;99.90
26589;DHT22;14235;48.532;8.722;2023-12-20T06:44:05;4.70;99.90
26589;DHT22;14235;48.532;8.722;2023-12-20T06:46:30;4.70;99.90
26589;DHT22;14235;48.532;8.722;2023-12-20T06:48:56;4.70;99.90
26589;DHT22;14235;48.532;8.722;2023-12-20T06:51:21;4.70;99.90
26589;DHT22;14235;48.532;8.722;2023-12-20T06:53:51;4.70;99.90
26589;DHT22;14235;48.532;8.722;2023-12-20T06:56:16;4.60;99.90
26589;DHT22;14235;48.532;8.722;2023-12-20T06:58:42;4.60;99.90
26589;DHT22;14235;48.532;8.722;2023-12-20T07:01:12;4.60;99.90
26589;DHT22;14235;48.532;8.722;2023-12-20T07:03:37;4.60;99.90
26589;DHT22;14235;48.532;8.722;2023-12-20T07:06:03;4.60;99.90
26589;DHT22;14235;48.532;8.722;2023-12-20T07:08:29;4.60;99.90
26589;DHT22;14235;48.532;8.722;2023-12-20T07:10:54;4.60;99.90
26589;DHT22;14235;48.532;8.722;2023-12-20T07:13:20;4.60;99.90
26589;DHT22;14235;48.532;8.722;2023-12-20T07:15:45;4.60;99.90
26589;DHT22;14235;48.532;8.722;2023-12-20T07:18:11;4.60;99.90
26589;DHT22;14235;48.532;8.722;2023-12-20T07:20:36;4.60;99.90
26589;DHT22;14235;48.532;8.722;2023-12-20T07:23:02;4.60;99.90
26589;DHT22;14235;48.532;8.722;2023-12-20T07:25:28;4.60;99.90
26589;DHT22;14235;48.532;8.722;2023-12-20T07:27:53;4.60;99.90
26589;DHT22;14235;48.532;8.722;2023-12-20T07:30:19;4.70;99.90
26589;DHT22;14235;48.532;8.722;2023-12-20T07:32:45;4.70;99.90
26589;DHT22;14235;48.532;8.722;2023-12-20T07:35:10;4.70;99.90
26589;DHT22;14235;48.532;8.722;2023-12-20T07:37:36;4.80;99.90
26589;DHT22;14235;48.532;8.722;2023-12-20T07:40:02;4.80;99.90
26589;DHT22;14235;48.532;8.722;2023-12-20T07:42:28;4.80;99.90
26589;DHT22;14235;48.532;8.722;2023-12-20T07:44:54;4.80;99.90
26589;DHT22;14235;48.532;8.722;2023-12-20T07:47:20;4.90;99.90
26589;DHT22;14235;48.532;8.722;2023-12-20T07:49:49;4.90;99.90
26589;DHT22;14235;48.532;8.722;2023-12-20T07:52:17;5.00;99.90
26589;DHT22;14235;48.532;8.722;2023-12-20T07:55:03;4.90;99.90
26589;DHT22;14235;48.532;8.722;2023-12-20T07:57:29;4.90;99.90
26589;DHT22;14235;48.532;8.722;2023-12-20T07:59:56;4.80;99.90
26589;DHT22;14235;48.532;8.722;2023-12-20T08:02:21;4.90;99.90
26589;DHT22;14235;48.532;8.722;2023-12-20T08:04:47;4.90;99.90
26589;DHT22;14235;48.532;8.722;2023-12-20T08:07:13;4.90;99.90
26589;DHT22;14235;48.532;8.722;2023-12-20T08:09:38;4.90;99.90
26589;DHT22;14235;48.532;8.722;2023-12-20T08:12:04;4.90;99.90
26589;DHT22;14235;48.532;8.722;2023-12-20T08:14:30;5.00;99.90
26589;DHT22;14235;48.532;8.722;2023-12-20T08:16:56;4.90;99.90
26589;DHT22;14235;48.532;8.722;2023-12-20T08:19:22;5.00;99.90
26589;DHT22;14235;48.532;8.722;2023-12-20T08:21:47;5.00;99.90
26589;DHT22;14235;48.532;8.722;2023-12-20T08:24:13;5.00;99.90
26589;DHT22;14235;48.532;8.722;2023-12-20T08:26:38;5.10;99.90
26589;DHT22;14235;48.532;8.722;2023-12-20T08:29:04;5.00;99.90
26589;DHT22;14235;48.532;8.722;2023-12-20T08:31:30;5.20;99.90
26589;DHT22;14235;48.532;8.722;2023-12-20T08:33:55;5.10;99.90
26589;DHT22;14235;48.532;8.722;2023-12-20T08:36:21;5.00;99.90
26589;DHT22;14235;48.532;8.722;2023-12-20T08:38:48;5.00;99.90
26589;DHT22;14235;48.532;8.722;2023-12-20T08:41:14;5.10;99.90
26589;DHT22;14235;48.532;8.722;2023-12-20T08:43:39;5.10;99.90
26589;DHT22;14235;48.532;8.722;2023-12-20T08:46:06;5.20;99.90
26589;DHT22;14235;48.532;8.722;2023-12-20T08:48:31;5.20;99.90
26589;DHT22;14235;48.532;8.722;2023-12-20T08:50:57;5.20;99.90
26589;DHT22;14235;48.532;8.722;2023-12-20T08:53:22;5.30;99.90
26589;DHT22;14235;48.532;8.722;2023-12-20T08:55:48;5.30;99.90
26589;DHT22;14235;48.532;8.722;2023-12-20T08:58:14;5.40;99.90
26589;DHT22;14235;48.532;8.722;2023-12-20T09:00:39;5.30;99.90
26589;DHT22;14235;48.532;8.722;2023-12-20T09:03:05;5.30;99.90
26589;DHT22;14235;48.532;8.722;2023-12-20T09:05:31;5.20;99.90
26589;DHT22;14235;48.532;8.722;2023-12-20T09:07:57;5.20;99.90
26589;DHT22;14235;48.532;8.722;2023-12-20T09:10:22;5.20;99.90
26589;DHT22;14235;48.532;8.722;2023-12-20T09:12:52;5.20;99.90
26589;DHT22;14235;48.532;8.722;2023-12-20T09:15:22;5.20;99.90
26589;DHT22;14235;48.532;8.722;2023-12-20T09:17:48;5.10;99.90
26589;DHT22;14235;48.532;8.722;2023-12-20T09:20:13;5.10;99.90
26589;DHT22;14235;48.532;8.722;2023-12-20T09:22:39;5.10;99.90
26589;DHT22;14235;48.532;8.722;2023-12-20T09:25:07;5.10;99.90
26589;DHT22;14235;48.532;8.722;2023-12-20T09:27:33;5.20;99.90
26589;DHT22;14235;48.532;8.722;2023-12-20T09:29:59;5.10;99.90
26589;DHT22;14235;48.532;8.722;2023-12-20T09:32:24;5.10;99.90
26589;DHT22;14235;48.532;8.722;2023-12-20T09:34:50;5.10;99.90
26589;DHT22;14235;48.532;8.722;2023-12-20T09:37:15;5.20;99.90
26589;DHT22;14235;48.532;8.722;2023-12-20T09:39:41;5.10;99.90
26589;DHT22;14235;48.532;8.722;2023-12-20T09:42:07;5.20;99.90
26589;DHT22;14235;48.532;8.722;2023-12-20T09:44:33;5.20;99.90
26589;DHT22;14235;48.532;8.722;2023-12-20T09:47:03;5.30;99.90
26589;DHT22;14235;48.532;8.722;2023-12-20T09:49:30;5.30;99.90
26589;DHT22;14235;48.532;8.722;2023-12-20T09:51:56;5.40;99.90
26589;DHT22;14235;48.532;8.722;2023-12-20T09:54:23;5.30;99.90
26589;DHT22;14235;48.532;8.722;2023-12-20T09:56:49;5.30;99.90
26589;DHT22;14235;48.532;8.722;2023-12-20T09:59:15;5.30;99.90
26589;DHT22;14235;48.532;8.722;2023-12-20T10:01:41;5.50;99.90
26589;DHT22;14235;48.532;8.722;2023-12-20T10:04:09;5.40;99.90
26589;DHT22;14235;48.532;8.722;2023-12-20T10:06:39;5.40;99.90
26589;DHT22;14235;48.532;8.722;2023-12-20T10:09:04;5.50;99.90
26589;DHT22;14235;48.532;8.722;2023-12-20T10:11:31;5.50;99.90
26589;DHT22;14235;48.532;8.722;2023-12-20T10:14:00;5.50;99.90
26589;DHT22;14235;48.532;8.722;2023-12-20T10:16:29;5.60;99.90
26589;DHT22;14235;48.532;8.722;2023-12-20T10:18:55;5.60;99.90
26589;DHT22;14235;48.532;8.722;2023-12-20T10:21:22;5.70;99.90
26589;DHT22;14235;48.532;8.722;2023-12-20T10:23:49;5.60;99.90
26589;DHT22;14235;48.532;8.722;2023-12-20T10:26:24;5.60;99.90
26589;DHT22;14235;48.532;8.722;2023-12-20T10:28:55;5.70;99.90
26589;DHT22;14235;48.532;8.722;2023-12-20T10:31:34;5.70;99.90
26589;DHT22;14235;48.532;8.722;2023-12-20T10:34:01;5.80;99.90
26589;DHT22;14235;48.532;8.722;2023-12-20T10:36:31;5.80;99.90
26589;DHT22;14235;48.532;8.722;2023-12-20T10:38:57;5.80;99.90
26589;DHT22;14235;48.532;8.722;2023-12-20T10:41:31;5.80;99.90
26589;DHT22;14235;48.532;8.722;2023-12-20T10:44:02;5.90;99.90
26589;DHT22;14235;48.532;8.722;2023-12-20T10:46:28;6.00;99.90
26589;DHT22;14235;48.532;8.722;2023-12-20T10:48:55;5.90;99.90
26589;DHT22;14235;48.532;8.722;2023-12-20T10:51:22;5.90;99.90
26589;DHT22;14235;48.532;8.722;2023-12-20T10:53:50;5.90;99.90
26589;DHT22;14235;48.532;8.722;2023-12-20T10:56:17;5.90;99.90
26589;DHT22;14235;48.532;8.722;2023-12-20T10:58:44;5.90;99.90
26589;DHT22;14235;48.532;8.722;2023-12-20T11:01:13;5.90;99.90
26589;DHT22;14235;48.532;8.722;2023-12-20T11:03:50;5.80;99.90
26589;DHT22;14235;48.532;8.722;2023-12-20T11:14:25;5.90;99.90
26589;DHT22;14235;48.532;8.722;2023-12-20T11:17:08;5.90;99.90
26589;DHT22;14235;48.532;8.722;2023-12-20T11:19:36;6.00;99.90
26589;DHT22;14235;48.532;8.722;2023-12-20T11:22:04;5.90;99.90
26589;DHT22;14235;48.532;8.722;2023-12-20T11:24:31;5.90;99.90
26589;DHT22;14235;48.532;8.722;2023-12-20T11:26:59;5.90;99.90
26589;DHT22;14235;48.532;8.722;2023-12-20T11:29:35;5.80;99.90
26589;DHT22;14235;48.532;8.722;2023-12-20T11:34:51;5.90;99.90
26589;DHT22;14235;48.532;8.722;2023-12-20T11:37:16;5.80;99.90
26589;DHT22;14235;48.532;8.722;2023-12-20T11:39:44;5.80;99.90
26589;DHT22;14235;48.532;8.722;2023-12-20T11:42:10;5.80;99.90
26589;DHT22;14235;48.532;8.722;2023-12-20T11:44:36;5.80;99.90
26589;DHT22;14235;48.532;8.722;2023-12-20T11:47:02;5.80;99.90
26589;DHT22;14235;48.532;8.722;2023-12-20T11:49:28;5.90;99.90
26589;DHT22;14235;48.532;8.722;2023-12-20T11:51:56;5.90;99.90
26589;DHT22;14235;48.532;8.722;2023-12-20T11:54:22;5.80;99.90
26589;DHT22;14235;48.532;8.722;2023-12-20T11:56:48;5.80;99.90
26589;DHT22;14235;48.532;8.722;2023-12-20T11:59:14;5.80;99.90
26589;DHT22;14235;48.532;8.722;2023-12-20T12:01:39;5.90;99.90
26589;DHT22;14235;48.532;8.722;2023-12-20T12:04:06;5.80;99.90
26589;DHT22;14235;48.532;8.722;2023-12-20T12:06:32;6.10;99.90
26589;DHT22;14235;48.532;8.722;2023-12-20T12:08:58;5.90;99.90
26589;DHT22;14235;48.532;8.722;2023-12-20T12:11:24;5.90;99.90
26589;DHT22;14235;48.532;8.722;2023-12-20T12:13:50;5.90;99.90
26589;DHT22;14235;48.532;8.722;2023-12-20T12:16:20;5.90;99.90
26589;DHT22;14235;48.532;8.722;2023-12-20T12:18:46;5.90;99.90
26589;DHT22;14235;48.532;8.722;2023-12-20T12:21:19;6.00;99.90
26589;DHT22;14235;48.532;8.722;2023-12-20T12:23:46;6.00;99.90
26589;DHT22;14235;48.532;8.722;2023-12-20T12:26:11;6.10;99.90
26589;DHT22;14235;48.532;8.722;2023-12-20T12:28:40;6.10;99.90
26589;DHT22;14235;48.532;8.722;2023-12-20T12:31:06;6.10;99.90
26589;DHT22;14235;48.532;8.722;2023-12-20T12:33:32;6.10;99.90
26589;DHT22;14235;48.532;8.722;2023-12-20T12:35:58;6.10;99.90
26589;DHT22;14235;48.532;8.722;2023-12-20T12:38:25;6.10;99.90
26589;DHT22;14235;48.532;8.722;2023-12-20T12:40:50;6.10;99.90
26589;DHT22;14235;48.532;8.722;2023-12-20T12:43:18;6.30;99.90
26589;DHT22;14235;48.532;8.722;2023-12-20T12:45:44;6.00;99.90
26589;DHT22;14235;48.532;8.722;2023-12-20T12:48:10;5.90;99.90
26589;DHT22;14235;48.532;8.722;2023-12-20T12:50:35;5.90;99.90
26589;DHT22;14235;48.532;8.722;2023-12-20T12:53:01;6.00;99.90
26589;DHT22;14235;48.532;8.722;2023-12-20T12:55:28;5.90;99.90
26589;DHT22;14235;48.532;8.722;2023-12-20T12:57:53;5.90;99.90
26589;DHT22;14235;48.532;8.722;2023-12-20T13:00:19;5.90;99.90
26589;DHT22;14235;48.532;8.722;2023-12-20T13:02:45;6.00;99.90
26589;DHT22;14235;48.532;8.722;2023-12-20T13:05:11;6.00;99.90
26589;DHT22;14235;48.532;8.722;2023-12-20T13:07:36;6.00;99.90
26589;DHT22;14235;48.532;8.722;2023-12-20T13:10:03;6.10;99.90
26589;DHT22;14235;48.532;8.722;2023-12-20T13:12:29;6.30;99.90
26589;DHT22;14235;48.532;8.722;2023-12-20T13:14:55;6.30;99.90
26589;DHT22;14235;48.532;8.722;2023-12-20T13:17:20;6.50;99.90
26589;DHT22;14235;48.532;8.722;2023-12-20T13:19:46;6.50;99.90
26589;DHT22;14235;48.532;8.722;2023-12-20T13:22:12;6.60;99.90
26589;DHT22;14235;48.532;8.722;2023-12-20T13:24:37;6.50;99.90
26589;DHT22;14235;48.532;8.722;2023-12-20T13:27:03;6.60;99.90
26589;DHT22;14235;48.532;8.722;2023-12-20T13:29:28;6.60;99.90
26589;DHT22;14235;48.532;8.722;2023-12-20T13:31:54;6.70;99.90
26589;DHT22;14235;48.532;8.722;2023-12-20T13:34:20;6.70;99.90
26589;DHT22;14235;48.532;8.722;2023-12-20T13:36:46;6.70;99.90
26589;DHT22;14235;48.532;8.722;2023-12-20T13:39:13;6.70;99.90
26589;DHT22;14235;48.532;8.722;2023-12-20T13:41:39;6.60;99.90
26589;DHT22;14235;48.532;8.722;2023-12-20T13:44:05;6.60;99.90
26589;DHT22;14235;48.532;8.722;2023-12-20T15:35:41;5.30;99.90
26589;DHT22;14235;48.532;8.722;2023-12-20T15:38:27;5.20;99.90
26589;DHT22;14235;48.532;8.722;2023-12-20T15:40:53;5.20;99.90
26589;DHT22;14235;48.532;8.722;2023-12-20T15:43:19;5.30;99.90
26589;DHT22;14235;48.532;8.722;2023-12-20T15:45:45;5.10;99.90
26589;DHT22;14235;48.532;8.722;2023-12-20T15:48:12;5.20;99.90
26589;DHT22;14235;48.532;8.722;2023-12-20T15:50:43;5.20;99.90
26589;DHT22;14235;48.532;8.722;2023-12-20T15:53:09;5.20;99.90
26589;DHT22;14235;48.532;8.722;2023-12-20T15:55:35;5.20;99.90
26589;DHT22;14235;48.532;8.722;2023-12-20T15:58:01;5.20;99.90
26589;DHT22;14235;48.532;8.722;2023-12-20T16:00:27;5.10;99.90
26589;DHT22;14235;48.532;8.722;2023-12-20T16:02:52;5.20;99.90
26589;DHT22;14235;48.532;8.722;2023-12-20T16:05:19;5.10;99.90
26589;DHT22;14235;48.532;8.722;2023-12-20T16:07:45;5.10;99.90
26589;DHT22;14235;48.532;8.722;2023-12-20T16:10:10;5.10;99.90
26589;DHT22;14235;48.532;8.722;2023-12-20T16:12:37;5.10;99.90
26589;DHT22;14235;48.532;8.722;2023-12-20T16:15:03;5.00;99.90
26589;DHT22;14235;48.532;8.722;2023-12-20T16:17:29;5.00;99.90
26589;DHT22;14235;48.532;8.722;2023-12-20T16:19:54;5.00;99.90
26589;DHT22;14235;48.532;8.722;2023-12-20T16:22:20;5.00;99.90
26589;DHT22;14235;48.532;8.722;2023-12-20T16:24:46;5.00;99.90
26589;DHT22;14235;48.532;8.722;2023-12-20T16:27:12;5.00;99.90
26589;DHT22;14235;48.532;8.722;2023-12-20T16:29:38;5.00;99.90
26589;DHT22;14235;48.532;8.722;2023-12-20T16:32:04;5.00;99.90
26589;DHT22;14235;48.532;8.722;2023-12-20T16:34:30;4.90;99.90
26589;DHT22;14235;48.532;8.722;2023-12-20T16:37:01;5.00;99.90
26589;DHT22;14235;48.532;8.722;2023-12-20T16:39:29;5.00;99.90
26589;DHT22;14235;48.532;8.722;2023-12-20T16:41:55;5.10;99.90
26589;DHT22;14235;48.532;8.722;2023-12-20T16:44:21;4.90;99.90
26589;DHT22;14235;48.532;8.722;2023-12-20T16:46:51;4.90;99.90
26589;DHT22;14235;48.532;8.722;2023-12-20T16:49:20;4.80;99.90
26589;DHT22;14235;48.532;8.722;2023-12-20T16:51:45;4.80;99.90
26589;DHT22;14235;48.532;8.722;2023-12-20T16:54:11;5.00;99.90
26589;DHT22;14235;48.532;8.722;2023-12-20T16:56:37;4.80;99.90
26589;DHT22;14235;48.532;8.722;2023-12-20T16:59:03;4.80;99.90
26589;DHT22;14235;48.532;8.722;2023-12-20T17:01:30;4.80;99.90
26589;DHT22;14235;48.532;8.722;2023-12-20T17:03:55;4.90;99.90
26589;DHT22;14235;48.532;8.722;2023-12-20T17:06:21;4.70;99.90
26589;DHT22;14235;48.532;8.722;2023-12-20T17:08:49;4.80;99.90
26589;DHT22;14235;48.532;8.722;2023-12-20T17:11:15;4.70;99.90
26589;DHT22;14235;48.532;8.722;2023-12-20T17:13:42;4.70;99.90
26589;DHT22;14235;48.532;8.722;2023-12-20T17:16:09;4.70;99.90
26589;DHT22;14235;48.532;8.722;2023-12-20T17:18:36;4.80;99.90
26589;DHT22;14235;48.532;8.722;2023-12-20T17:21:04;4.80;99.90
26589;DHT22;14235;48.532;8.722;2023-12-20T17:23:30;4.70;99.90
26589;DHT22;14235;48.532;8.722;2023-12-20T17:25:56;4.80;99.90
26589;DHT22;14235;48.532;8.722;2023-12-20T17:28:22;4.90;99.90
26589;DHT22;14235;48.532;8.722;2023-12-20T17:30:51;4.70;99.90
26589;DHT22;14235;48.532;8.722;2023-12-20T17:33:17;4.90;99.90
26589;DHT22;14235;48.532;8.722;2023-12-20T17:35:46;4.90;99.90
26589;DHT22;14235;48.532;8.722;2023-12-20T17:38:14;4.90;99.90
26589;DHT22;14235;48.532;8.722;2023-12-20T17:40:40;4.90;99.90